Time;durP1;ratioP1;P1;durP2;ratioP2;P2;SDS_P1;SDS_P2;PMS_P1;PMS_P2;Temp;Humidity;BMP_temperature;BMP_pressure;BME280_temperature;BME280_humidity;BME280_pressure;Samples;Min_cycle;Max_cycle;Signal;HPM_P1;HPM_P2
2022/09/09 00:01:25;;;;;;;1.95;1.10;;;;;;;19.67;75.23;99281.50;4489769;31;34059;-79
2022/09/09 00:03:56;;;;;;;1.27;1.00;;;;;;;19.56;76.14;99288.25;4481385;31;33539;-80
2022/09/09 00:06:29;;;;;;;1.27;1.10;;;;;;;19.57;75.90;99282.06;4496356;31;33331;-80
2022/09/09 00:09:10;;;;;;;2.50;1.10;;;;;;;19.55;76.62;99276.03;4492745;31;34845;-78
2022/09/09 00:11:42;;;;;;;1.25;0.90;;;;;;;19.35;77.14;99266.66;4476006;31;33731;-81
2022/09/09 00:14:17;;;;;;;2.22;1.37;;;;;;;19.28;77.16;99264.41;4476881;32;33840;-80
2022/09/09 00:16:51;;;;;;;0.80;0.80;;;;;;;19.35;76.38;99277.16;4474455;31;32139;-80
2022/09/09 00:19:24;;;;;;;0.77;0.73;;;;;;;19.32;76.40;99287.84;4482778;32;33680;-79
2022/09/09 00:21:59;;;;;;;1.50;1.20;;;;;;;19.19;77.26;99286.84;4481703;31;34451;-79
2022/09/09 00:24:35;;;;;;;2.62;1.35;;;;;;;18.92;78.62;99279.53;4476983;32;34716;-80
2022/09/09 00:27:08;;;;;;;2.12;1.25;;;;;;;19.21;77.12;99271.81;4475170;31;33310;-79
2022/09/09 00:29:40;;;;;;;2.37;1.33;;;;;;;19.13;77.36;99276.63;4477094;32;33436;-78
2022/09/09 00:32:14;;;;;;;2.17;1.20;;;;;;;19.14;77.75;99280.97;4480890;31;33403;-78
2022/09/09 00:34:48;;;;;;;0.95;0.88;;;;;;;19.03;77.71;99281.56;4482059;32;34693;-79
2022/09/09 00:37:17;;;;;;;0.95;0.77;;;;;;;19.39;76.02;99276.03;4481933;31;33535;-81
2022/09/09 00:39:48;;;;;;;4.37;1.45;;;;;;;19.24;76.70;99289.22;4487868;31;33314;-78
2022/09/09 00:42:18;;;;;;;1.62;1.10;;;;;;;19.24;76.65;99281.31;4476395;31;33737;-80
2022/09/09 00:44:53;;;;;;;1.43;1.03;;;;;;;19.18;76.60;99283.38;4481933;31;34207;-78
2022/09/09 00:47:38;;;;;;;1.73;1.17;;;;;;;19.07;77.33;99277.84;4476366;31;33394;-79
2022/09/09 00:50:16;;;;;;;2.65;1.20;;;;;;;19.22;76.62;99280.56;4487991;31;33133;-80
2022/09/09 00:52:49;;;;;;;1.80;1.30;;;;;;;19.03;77.46;99283.34;4485037;31;34613;-77
2022/09/09 00:55:25;;;;;;;4.07;1.25;;;;;;;19.12;76.76;99283.69;4477084;31;33676;-78
2022/09/09 00:57:55;;;;;;;1.80;1.00;;;;;;;19.17;76.19;99288.69;4491484;31;33968;-78
2022/09/09 01:00:25;;;;;;;1.67;1.07;;;;;;;18.96;77.57;99291.53;4487889;31;33689;-79
2022/09/09 01:03:12;;;;;;;2.47;1.20;;;;;;;19.12;76.38;99302.09;4478320;31;34401;-79
2022/09/09 01:05:46;;;;;;;1.52;1.00;;;;;;;18.98;77.23;99302.84;4494103;31;34590;-81
2022/09/09 01:08:24;;;;;;;1.15;1.02;;;;;;;18.71;78.51;99299.87;4488889;31;33431;-80
2022/09/09 01:10:56;;;;;;;1.73;1.17;;;;;;;19.13;76.30;99309.03;4475423;31;34220;-78
2022/09/09 01:13:26;;;;;;;1.80;1.10;;;;;;;19.15;76.05;99307.19;4480196;31;33947;-78
2022/09/09 01:15:55;;;;;;;1.75;1.12;;;;;;;19.11;76.69;99305.66;4477012;31;33616;-79
2022/09/09 01:18:34;;;;;;;1.50;1.10;;;;;;;18.98;76.84;99307.25;4475173;31;34415;-79
2022/09/09 01:21:10;;;;;;;1.37;0.95;;;;;;;18.85;77.94;99306.22;4475278;31;34269;-81
2022/09/09 01:24:06;;;;;;;1.70;1.17;;;;;;;18.68;78.76;99307.94;4481005;32;33474;-80
2022/09/09 01:26:38;;;;;;;1.55;1.25;;;;;;;18.85;78.32;99322.00;4464735;31;33502;-78
2022/09/09 01:29:09;;;;;;;1.58;1.20;;;;;;;19.00;77.63;99322.94;4476572;32;33691;-78
2022/09/09 01:31:40;;;;;;;2.03;1.40;;;;;;;18.83;78.46;99318.59;4476293;31;34166;-79
2022/09/09 01:34:12;;;;;;;1.52;1.17;;;;;;;18.91;78.41;99325.13;4477116;31;34162;-79
2022/09/09 01:36:45;;;;;;;2.25;1.15;;;;;;;18.82;78.64;99320.34;4485575;31;34059;-80
2022/09/09 01:39:14;;;;;;;1.73;1.02;;;;;;;19.01;77.65;99324.63;4495618;31;33541;-78
2022/09/09 01:41:44;;;;;;;2.25;1.30;;;;;;;19.19;76.61;99319.22;4480666;31;33311;-78
2022/09/09 01:44:14;;;;;;;1.48;1.20;;;;;;;19.07;77.27;99326.94;4475954;31;33441;-80
2022/09/09 01:46:43;;;;;;;1.73;1.30;;;;;;;18.89;78.12;99331.37;4477209;31;34800;-78
2022/09/09 01:49:12;;;;;;;1.12;1.02;;;;;;;19.00;77.44;99338.72;4483722;32;33356;-78
2022/09/09 01:51:42;;;;;;;1.02;0.85;;;;;;;19.01;77.53;99340.41;4476788;31;33012;-76
2022/09/09 01:54:11;;;;;;;1.37;1.20;;;;;;;19.02;77.26;99339.50;4477931;31;33071;-78
2022/09/09 01:56:48;;;;;;;1.95;1.35;;;;;;;18.95;77.45;99336.34;4479326;31;33692;-78
2022/09/09 01:59:27;;;;;;;1.65;1.15;;;;;;;18.92;77.70;99342.59;4481094;31;33413;-78
2022/09/09 02:02:10;;;;;;;2.00;1.30;;;;;;;18.63;79.22;99330.97;4485016;31;33548;-80
2022/09/09 02:04:41;;;;;;;1.45;1.10;;;;;;;18.53;79.97;99324.47;4479585;32;34846;-78
2022/09/09 02:07:19;;;;;;;5.82;2.62;;;;;;;19.04;76.96;99324.47;4478153;31;33615;-80
2022/09/09 02:09:53;;;;;;;2.55;1.40;;;;;;;18.85;77.78;99322.00;4476323;31;33673;-80
2022/09/09 02:12:25;;;;;;;1.42;1.17;;;;;;;18.71;78.67;99318.25;4477143;32;33418;-78
2022/09/09 02:14:57;;;;;;;1.33;1.00;;;;;;;18.84;78.36;99322.91;4483618;32;34556;-79
2022/09/09 02:17:29;;;;;;;1.12;0.98;;;;;;;18.81;78.21;99325.69;4476187;32;33564;-80
2022/09/09 02:20:04;;;;;;;4.90;1.75;;;;;;;18.49;80.08;99331.69;4478920;31;34209;-80
2022/09/09 02:22:35;;;;;;;1.80;1.30;;;;;;;18.80;78.65;99329.25;4490041;31;31415;-77
2022/09/09 02:25:06;;;;;;;2.40;1.50;;;;;;;18.93;77.98;99328.53;4478103;31;33408;-79
2022/09/09 02:27:36;;;;;;;1.35;1.02;;;;;;;18.74;78.94;99319.88;4483439;31;34333;-79
2022/09/09 02:30:06;;;;;;;1.45;1.05;;;;;;;18.89;77.80;99319.09;4480104;31;34365;-77
2022/09/09 02:32:36;;;;;;;2.62;1.40;;;;;;;18.66;78.73;99322.91;4477722;32;33775;-78
2022/09/09 02:35:09;;;;;;;1.55;1.20;;;;;;;19.01;76.93;99316.75;4477351;32;33888;-78
2022/09/09 02:37:40;;;;;;;1.90;1.08;;;;;;;19.17;75.94;99315.84;4484982;31;33571;-78
2022/09/09 02:40:11;;;;;;;2.42;1.17;;;;;;;19.07;76.28;99313.81;4498270;31;33486;-79
2022/09/09 02:42:43;;;;;;;4.25;1.35;;;;;;;19.19;75.62;99313.97;4489871;31;33890;-78
2022/09/09 02:45:15;;;;;;;1.50;1.08;;;;;;;18.96;76.62;99311.72;4491810;31;33389;-78
2022/09/09 02:47:49;;;;;;;1.90;1.12;;;;;;;18.96;76.41;99314.37;4477123;32;33596;-78
2022/09/09 02:50:23;;;;;;;1.02;0.90;;;;;;;19.10;75.89;99313.63;4481653;32;33978;-78
2022/09/09 02:53:02;;;;;;;1.75;1.23;;;;;;;18.94;76.56;99324.09;4477637;31;33391;-78
2022/09/09 02:55:39;;;;;;;1.10;0.90;;;;;;;19.07;76.17;99329.56;4477438;32;33091;-77
2022/09/09 02:58:12;;;;;;;1.55;0.93;;;;;;;19.01;76.37;99322.84;4477567;31;34229;-78
2022/09/09 03:00:42;;;;;;;1.77;1.40;;;;;;;19.12;75.70;99327.53;4482535;31;33383;-78
2022/09/09 03:03:10;;;;;;;1.80;1.17;;;;;;;19.22;75.05;99328.72;4481592;31;33730;-77
2022/09/09 03:05:40;;;;;;;1.48;1.02;;;;;;;18.91;76.16;99327.75;4476932;32;34141;-79
2022/09/09 03:08:16;;;;;;;1.25;0.90;;;;;;;19.09;75.55;99338.22;4476082;31;33798;-78
2022/09/09 03:10:45;;;;;;;1.70;1.10;;;;;;;19.16;75.33;99332.56;4482671;31;34545;-78
2022/09/09 03:13:19;;;;;;;2.17;1.20;;;;;;;19.00;75.94;99334.31;4475774;31;33672;-78
2022/09/09 03:15:49;;;;;;;2.30;1.12;;;;;;;19.10;75.42;99339.91;4481156;31;34191;-80
2022/09/09 03:18:18;;;;;;;1.95;1.15;;;;;;;19.00;75.35;99347.44;4476181;31;34520;-77
2022/09/09 03:20:48;;;;;;;1.77;1.30;;;;;;;19.10;75.06;99342.53;4476182;31;33091;-78
2022/09/09 03:23:17;;;;;;;1.70;1.20;;;;;;;19.13;74.43;99353.72;4476113;31;32987;-79
2022/09/09 03:25:49;;;;;;;2.67;1.33;;;;;;;19.17;74.07;99354.44;4481856;32;34088;-79
2022/09/09 03:28:21;;;;;;;1.50;1.15;;;;;;;19.12;74.27;99349.41;4480328;31;34644;-77
2022/09/09 03:30:50;;;;;;;2.35;1.35;;;;;;;19.32;73.24;99350.12;4475652;31;33512;-81
2022/09/09 03:33:20;;;;;;;2.05;1.25;;;;;;;19.16;73.99;99340.44;4476696;31;33322;-79
2022/09/09 03:35:49;;;;;;;2.60;1.20;;;;;;;19.21;74.02;99348.09;4476736;32;34124;-80
2022/09/09 03:38:18;;;;;;;3.45;1.67;;;;;;;19.44;72.41;99338.06;4484990;31;33724;-77
2022/09/09 03:40:51;;;;;;;1.48;1.00;;;;;;;19.18;73.40;99345.59;4475732;31;33841;-80
2022/09/09 03:43:22;;;;;;;3.12;1.58;;;;;;;19.20;73.25;99341.12;4476289;31;34537;-77
2022/09/09 03:45:51;;;;;;;;;;;;;;;18.92;74.46;99341.75;4483402;31;33406;-79
2022/09/09 03:48:20;;;;;;;1.80;1.20;;;;;;;18.87;74.50;99344.63;4486448;31;33672;-78
2022/09/09 03:50:51;;;;;;;1.85;1.20;;;;;;;18.78;75.13;99349.53;4481002;32;33765;-77
2022/09/09 03:53:22;;;;;;;3.60;1.80;;;;;;;18.86;75.03;99344.69;4474758;32;33492;-77
2022/09/09 03:55:54;;;;;;;3.15;1.50;;;;;;;18.68;75.75;99357.00;4488120;31;33660;-77
2022/09/09 03:58:26;;;;;;;3.12;1.60;;;;;;;18.85;75.48;99354.38;4489305;31;33696;-77
2022/09/09 04:01:00;;;;;;;1.83;1.20;;;;;;;18.98;74.58;99362.44;4483483;31;178128;-80
2022/09/09 04:03:29;;;;;;;2.70;1.67;;;;;;;18.70;75.96;99365.62;4475940;32;33548;-78
2022/09/09 04:06:01;;;;;;;3.00;1.95;;;;;;;18.74;75.90;99365.41;4476318;32;33949;-80
2022/09/09 04:08:32;;;;;;;2.72;1.70;;;;;;;18.79;75.75;99366.97;4475677;31;33269;-79
2022/09/09 04:11:05;;;;;;;4.90;2.17;;;;;;;18.94;75.09;99363.53;4478721;31;34643;-80
2022/09/09 04:13:37;;;;;;;2.62;1.42;;;;;;;18.96;74.90;99354.63;4497403;31;31599;-78
2022/09/09 04:16:06;;;;;;;1.92;1.20;;;;;;;18.84;75.67;99362.31;4478750;31;33616;-80
2022/09/09 04:18:35;;;;;;;3.53;1.95;;;;;;;18.97;74.81;99366.03;4477324;32;34649;-80
2022/09/09 04:21:06;;;;;;;4.55;2.08;;;;;;;19.18;73.72;99357.00;4476941;31;34174;-76
2022/09/09 04:23:35;;;;;;;1.45;1.23;;;;;;;19.13;73.93;99359.00;4483160;32;32345;-78
2022/09/09 04:26:06;;;;;;;3.05;1.87;;;;;;;19.21;73.49;99352.47;4476670;31;34515;-78
2022/09/09 04:28:37;;;;;;;1.60;1.25;;;;;;;18.96;74.37;99354.63;4478309;31;33991;-78
2022/09/09 04:31:08;;;;;;;2.80;1.98;;;;;;;18.82;75.38;99359.75;4477616;31;34068;-77
2022/09/09 04:33:39;;;;;;;3.22;1.87;;;;;;;18.91;74.66;99351.41;4476195;32;33049;-79
2022/09/09 04:36:08;;;;;;;2.50;1.67;;;;;;;18.78;75.44;99360.03;4481857;32;34273;-78
2022/09/09 04:38:38;;;;;;;2.83;1.92;;;;;;;18.64;76.04;99353.66;4490676;31;34738;-78
2022/09/09 04:41:07;;;;;;;2.70;1.67;;;;;;;18.72;75.71;99348.84;4485939;31;34726;-80
2022/09/09 04:43:37;;;;;;;3.10;1.77;;;;;;;18.62;76.29;99339.75;4478324;31;33190;-77
2022/09/09 04:46:07;;;;;;;3.40;1.98;;;;;;;18.64;76.18;99339.69;4482268;31;33618;-78
2022/09/09 04:48:36;;;;;;;3.33;1.65;;;;;;;18.51;76.74;99340.34;4476485;31;33790;-78
2022/09/09 04:51:06;;;;;;;2.53;1.58;;;;;;;18.68;75.98;99343.88;4477679;31;33526;-77
2022/09/09 04:53:36;;;;;;;3.37;1.95;;;;;;;18.70;75.86;99349.88;4476856;31;34313;-79
2022/09/09 04:56:09;;;;;;;2.65;1.67;;;;;;;18.53;76.79;99340.22;4476138;31;33796;-77
2022/09/09 04:58:42;;;;;;;3.30;2.05;;;;;;;18.58;77.12;99354.00;4482334;31;34682;-77
2022/09/09 05:01:12;;;;;;;3.15;1.98;;;;;;;18.62;76.27;99352.06;4485346;31;34171;-79
2022/09/09 05:03:42;;;;;;;3.58;2.22;;;;;;;18.73;76.36;99357.62;4474534;31;32098;-78
2022/09/09 05:06:12;;;;;;;3.78;2.20;;;;;;;18.80;76.50;99355.53;4474395;31;34522;-77
2022/09/09 05:08:42;;;;;;;2.90;1.62;;;;;;;18.84;76.21;99359.69;4483683;31;33831;-77
2022/09/09 05:11:19;;;;;;;3.37;1.85;;;;;;;18.61;76.40;99359.09;4480487;31;33792;-80
2022/09/09 05:13:49;;;;;;;3.70;1.80;;;;;;;18.95;75.44;99354.72;4478265;31;33208;-78
2022/09/09 05:16:19;;;;;;;3.45;2.08;;;;;;;19.09;74.72;99359.25;4479028;31;33357;-79
2022/09/09 05:18:48;;;;;;;3.25;1.67;;;;;;;19.04;74.18;99356.88;4473406;31;34433;-79
2022/09/09 05:21:19;;;;;;;3.70;1.87;;;;;;;18.75;75.66;99366.28;4480426;31;34753;-80
2022/09/09 05:23:48;;;;;;;2.37;1.63;;;;;;;18.71;76.25;99357.69;4478238;31;33307;-78
2022/09/09 05:26:19;;;;;;;3.83;2.03;;;;;;;18.64;75.87;99358.09;4475798;31;33946;-78
2022/09/09 05:28:49;;;;;;;2.40;1.67;;;;;;;18.47;77.21;99366.84;4481692;31;34529;-80
2022/09/09 05:31:19;;;;;;;3.10;1.90;;;;;;;18.54;77.19;99369.06;4475918;32;33189;-79
2022/09/09 05:33:50;;;;;;;3.95;2.20;;;;;;;18.91;75.75;99382.09;4480338;31;34362;-79
2022/09/09 05:36:20;;;;;;;4.43;1.80;;;;;;;18.99;75.55;99385.16;4482666;31;33489;-80
2022/09/09 05:38:50;;;;;;;2.22;1.42;;;;;;;18.81;75.81;99384.37;4478605;31;33803;-79
2022/09/09 05:41:20;;;;;;;3.20;1.90;;;;;;;19.08;75.11;99381.22;4473965;31;33156;-80
2022/09/09 05:43:50;;;;;;;2.78;1.65;;;;;;;19.33;73.18;99384.25;4480538;31;33317;-77
2022/09/09 05:46:22;;;;;;;2.40;1.45;;;;;;;19.06;75.06;99378.66;4477608;31;34072;-80
2022/09/09 05:48:53;;;;;;;2.75;1.70;;;;;;;19.26;74.40;99379.41;4484170;31;34656;-78
2022/09/09 05:51:23;;;;;;;3.03;1.67;;;;;;;19.25;73.22;99383.78;4483501;31;33453;-79
2022/09/09 05:53:54;;;;;;;2.90;1.75;;;;;;;19.45;72.60;99379.22;4482534;31;33280;-79
2022/09/09 05:56:26;;;;;;;3.10;2.08;;;;;;;19.29;73.59;99377.44;4483877;31;34698;-79
2022/09/09 05:58:57;;;;;;;4.03;1.95;;;;;;;19.33;73.43;99378.09;4482505;31;34324;-78
2022/09/09 06:01:27;;;;;;;3.03;1.90;;;;;;;19.37;73.90;99379.66;4486702;31;34024;-78
2022/09/09 06:03:57;;;;;;;3.08;1.70;;;;;;;19.54;72.18;99379.56;4484599;31;33461;-79
2022/09/09 06:06:27;;;;;;;3.95;2.03;;;;;;;19.31;73.56;99378.22;4488359;31;35179;-80
2022/09/09 06:08:58;;;;;;;3.55;2.00;;;;;;;19.35;73.84;99379.75;4484097;31;34435;-79
2022/09/09 06:11:30;;;;;;;2.75;1.80;;;;;;;19.47;73.25;99375.56;4488257;31;32011;-79
2022/09/09 06:14:01;;;;;;;2.12;1.70;;;;;;;19.66;72.50;99379.84;4491732;31;33053;-79
2022/09/09 06:16:32;;;;;;;2.97;1.75;;;;;;;19.81;72.17;99379.00;4490777;31;32449;-79
2022/09/09 06:19:02;;;;;;;2.87;1.60;;;;;;;19.86;73.05;99384.88;4487032;31;32461;-79
2022/09/09 06:21:33;;;;;;;2.15;1.55;;;;;;;19.95;71.89;99378.22;4483907;31;34669;-79
2022/09/09 06:24:03;;;;;;;3.80;1.95;;;;;;;19.94;71.65;99379.19;4488971;31;33659;-79
2022/09/09 06:26:33;;;;;;;5.65;1.77;;;;;;;20.10;71.01;99379.12;4485383;31;33368;-78
2022/09/09 06:29:04;;;;;;;2.37;1.83;;;;;;;20.02;71.80;99380.41;4492432;31;33666;-80
2022/09/09 06:31:36;;;;;;;3.42;1.80;;;;;;;20.27;72.04;99391.31;4489924;31;34492;-78
2022/09/09 06:34:07;;;;;;;2.42;1.60;;;;;;;20.39;70.98;99391.47;4486103;31;33314;-78
2022/09/09 06:36:38;;;;;;;3.53;1.45;;;;;;;20.42;70.02;99391.28;4492958;31;32785;-79
2022/09/09 06:39:08;;;;;;;2.50;1.87;;;;;;;20.51;69.39;99387.25;4485232;31;33316;-78
2022/09/09 06:41:43;;;;;;;3.05;1.62;;;;;;;20.19;70.69;99397.03;4484572;31;33746;-78
2022/09/09 06:44:19;;;;;;;2.08;1.20;;;;;;;20.31;70.89;99392.84;4480334;31;33165;-79
2022/09/09 06:46:48;;;;;;;2.55;1.50;;;;;;;20.38;70.22;99395.03;4486153;31;33217;-78
2022/09/09 06:49:17;;;;;;;2.78;1.58;;;;;;;20.27;71.17;99396.59;4482362;31;33615;-78
2022/09/09 06:51:46;;;;;;;1.80;1.17;;;;;;;20.25;71.62;99388.81;4476216;31;33384;-80
2022/09/09 06:54:14;;;;;;;1.95;1.23;;;;;;;20.45;70.62;99396.38;4485075;31;33607;-80
2022/09/09 06:56:45;;;;;;;2.00;1.30;;;;;;;20.47;70.88;99396.31;4485115;31;34187;-78
2022/09/09 06:59:14;;;;;;;2.20;1.42;;;;;;;20.49;69.27;99396.19;4482822;31;34348;-78
2022/09/09 07:01:44;;;;;;;2.45;1.48;;;;;;;20.36;69.99;99394.28;4475562;31;32385;-79
2022/09/09 07:04:14;;;;;;;2.12;1.33;;;;;;;20.41;69.95;99409.81;4482416;31;34055;-78
2022/09/09 07:06:44;;;;;;;1.20;1.00;;;;;;;20.47;69.85;99398.94;4476681;31;33998;-79
2022/09/09 07:09:16;;;;;;;2.87;1.83;;;;;;;20.37;69.42;99414.44;4476601;31;33756;-79
2022/09/09 07:11:46;;;;;;;1.98;1.37;;;;;;;20.46;67.64;99418.31;4476515;31;33330;-78
2022/09/09 07:14:16;;;;;;;1.83;1.15;;;;;;;20.19;69.24;99407.56;4485981;31;32963;-80
2022/09/09 07:16:47;;;;;;;3.37;1.47;;;;;;;20.40;68.58;99400.22;4491340;31;34561;-80
2022/09/09 07:19:17;;;;;;;2.80;1.40;;;;;;;20.07;70.59;99400.38;4485457;31;33934;-80
2022/09/09 07:21:46;;;;;;;1.95;1.23;;;;;;;20.38;68.77;99410.00;4481454;31;33707;-80
2022/09/09 07:24:15;;;;;;;1.77;1.30;;;;;;;20.12;70.31;99407.06;4478482;31;34553;-78
2022/09/09 07:26:46;;;;;;;2.35;1.40;;;;;;;20.23;69.81;99403.84;4489380;31;33522;-79
2022/09/09 07:29:14;;;;;;;5.68;1.45;;;;;;;20.18;70.38;99406.75;4476650;31;34753;-79
2022/09/09 07:31:50;;;;;;;3.12;1.70;;;;;;;20.20;70.11;99411.94;4476982;31;34290;-78
2022/09/09 07:34:21;;;;;;;1.50;1.13;;;;;;;20.31;69.95;99419.19;4476553;31;33865;-82
2022/09/09 07:36:51;;;;;;;8.40;2.47;;;;;;;20.22;70.52;99416.16;4489527;31;33747;-79
2022/09/09 07:39:20;;;;;;;1.27;0.98;;;;;;;20.33;69.46;99417.31;4482162;31;34769;-78
2022/09/09 07:41:50;;;;;;;1.23;1.08;;;;;;;20.16;69.38;99419.13;4489046;31;33781;-81
2022/09/09 07:44:22;;;;;;;1.30;1.20;;;;;;;20.33;69.97;99420.81;4476353;31;33208;-81
2022/09/09 07:46:52;;;;;;;;;;;;;;;20.46;68.43;99426.19;4478660;31;32794;-81
2022/09/09 07:49:22;;;;;;;2.10;1.30;;;;;;;20.64;67.99;99432.25;4481228;31;33242;-77
2022/09/09 07:52:00;;;;;;;2.37;1.08;;;;;;;20.60;68.15;99426.28;4481652;31;34153;-81
2022/09/09 07:54:29;;;;;;;1.30;0.93;;;;;;;20.80;67.32;99427.75;4479376;31;32146;-77
2022/09/09 07:56:58;;;;;;;1.80;1.08;;;;;;;20.88;67.80;99419.38;4476221;31;32699;-77
2022/09/09 07:59:30;;;;;;;1.30;0.80;;;;;;;20.98;65.90;99424.94;4480579;31;33475;-81
2022/09/09 08:02:00;;;;;;;;;;;;;;;21.15;66.68;99416.84;4487701;31;33958;-78
2022/09/09 08:04:29;;;;;;;1.23;0.88;;;;;;;21.45;65.76;99415.94;4476277;31;33508;-80
2022/09/09 08:07:00;;;;;;;1.95;1.10;;;;;;;21.28;64.65;99416.94;4476143;31;34428;-78
2022/09/09 08:09:29;;;;;;;0.82;0.75;;;;;;;21.27;64.62;99418.75;4476459;31;34561;-81
2022/09/09 08:11:59;;;;;;;1.15;0.95;;;;;;;21.29;64.94;99416.84;4491533;31;33900;-79
2022/09/09 08:14:29;;;;;;;0.88;0.88;;;;;;;21.34;64.38;99411.28;4493164;31;32106;-79
2022/09/09 08:16:58;;;;;;;1.42;0.95;;;;;;;21.41;64.46;99409.16;4491639;31;33479;-81
2022/09/09 08:19:29;;;;;;;1.17;0.82;;;;;;;21.50;63.13;99414.72;4491247;31;34441;-79
2022/09/09 08:21:59;;;;;;;1.58;0.85;;;;;;;21.61;62.50;99415.81;4483691;31;34253;-78
2022/09/09 08:24:28;;;;;;;1.35;0.90;;;;;;;21.54;64.77;99411.88;4494042;31;33100;-81
2022/09/09 08:26:57;;;;;;;2.97;0.88;;;;;;;21.76;62.96;99416.63;4475223;31;34478;-79
2022/09/09 08:29:28;;;;;;;0.70;0.70;;;;;;;21.96;61.10;99416.19;4480003;31;34149;-80
2022/09/09 08:31:59;;;;;;;1.00;0.88;;;;;;;21.78;61.78;99407.69;4478722;31;33469;-77
2022/09/09 08:34:31;;;;;;;1.37;0.80;;;;;;;21.92;60.52;99418.19;4480947;31;33927;-79
2022/09/09 08:37:00;;;;;;;0.85;0.80;;;;;;;22.21;60.93;99415.50;4483550;31;33696;-79
2022/09/09 08:39:30;;;;;;;0.70;0.70;;;;;;;22.25;60.53;99424.06;4491444;31;34305;-80
2022/09/09 08:42:29;;;;;;;1.25;0.77;;;;;;;22.41;60.33;99416.81;4491625;31;33657;-78
2022/09/09 08:45:17;;;;;;;0.65;0.65;;;;;;;22.39;61.25;99418.69;4477962;31;32539;-77
2022/09/09 08:47:55;;;;;;;0.80;0.68;;;;;;;22.40;59.70;99425.69;4486492;31;33582;-79
2022/09/09 08:50:27;;;;;;;0.82;0.62;;;;;;;22.53;59.01;99425.72;4481287;31;33826;-81
2022/09/09 08:53:01;;;;;;;1.00;0.70;;;;;;;22.87;58.35;99423.44;4475989;32;33640;-79
2022/09/09 08:55:38;;;;;;;0.50;0.50;;;;;;;22.35;58.95;99419.88;4476814;32;34013;-78
2022/09/09 08:58:13;;;;;;;1.00;0.80;;;;;;;22.80;56.81;99423.84;4489661;31;33485;-80
2022/09/09 09:00:59;;;;;;;1.10;0.80;;;;;;;22.63;57.92;99421.50;4492528;31;33724;-78
2022/09/09 09:03:36;;;;;;;0.90;0.70;;;;;;;23.06;57.10;99415.97;4490312;31;34154;-78
2022/09/09 09:06:15;;;;;;;1.42;0.70;;;;;;;23.20;55.05;99409.72;4496817;31;32596;-81
2022/09/09 09:08:48;;;;;;;1.12;0.68;;;;;;;22.81;55.67;99422.06;4485496;31;33980;-78
2022/09/09 09:11:17;;;;;;;2.40;1.00;;;;;;;22.96;54.22;99407.78;4489018;31;33748;-80
2022/09/09 09:13:49;;;;;;;0.50;0.50;;;;;;;23.10;55.30;99411.28;4483132;31;33603;-80
2022/09/09 09:16:24;;;;;;;0.60;0.52;;;;;;;23.26;54.52;99414.56;4487505;31;33064;-78
2022/09/09 09:18:54;;;;;;;0.50;0.50;;;;;;;23.36;52.20;99404.19;4489431;31;33652;-78
2022/09/09 09:21:36;;;;;;;1.17;0.60;;;;;;;23.60;52.22;99407.72;4482635;31;33639;-78
2022/09/09 09:24:09;;;;;;;1.33;0.73;;;;;;;23.60;52.82;99405.06;4475903;31;33235;-79
2022/09/09 09:26:38;;;;;;;0.52;0.50;;;;;;;23.60;52.36;99401.59;4475802;31;33656;-80
2022/09/09 09:29:12;;;;;;;0.52;0.52;;;;;;;23.81;49.89;99400.06;4494889;31;33412;-81
2022/09/09 09:31:45;;;;;;;0.40;0.40;;;;;;;23.71;51.65;99393.72;4497003;31;33843;-78
2022/09/09 09:34:14;;;;;;;0.50;0.50;;;;;;;23.90;50.44;99395.91;4491443;31;34408;-77
2022/09/09 09:36:47;;;;;;;0.40;0.40;;;;;;;23.82;48.42;99387.66;4491025;31;32541;-79
2022/09/09 09:39:24;;;;;;;1.17;0.75;;;;;;;23.94;47.68;99386.75;4476058;31;33899;-79
2022/09/09 09:42:14;;;;;;;0.50;0.50;;;;;;;24.01;48.73;99389.81;4476122;32;33814;-80
2022/09/09 09:44:46;;;;;;;0.90;0.50;;;;;;;24.08;50.10;99393.69;4481872;32;33853;-80
2022/09/09 09:47:17;;;;;;;0.30;0.30;;;;;;;24.18;45.31;99396.50;4476937;31;33302;-79
2022/09/09 09:49:53;;;;;;;0.55;0.45;;;;;;;24.12;47.24;99392.53;4482992;31;33812;-79
2022/09/09 09:52:25;;;;;;;0.47;0.30;;;;;;;23.97;44.85;99398.94;4479016;31;33268;-79
2022/09/09 09:54:55;;;;;;;0.30;0.30;;;;;;;24.34;43.47;99404.19;4481146;32;32977;-77
2022/09/09 09:57:28;;;;;;;0.40;0.40;;;;;;;24.16;45.83;99401.94;4481908;31;33726;-77
2022/09/09 10:00:17;;;;;;;0.30;0.30;;;;;;;24.40;43.88;99403.72;4476432;31;33470;-80
2022/09/09 10:02:48;;;;;;;0.55;0.40;;;;;;;24.49;41.95;99406.53;4475611;32;34392;-78
2022/09/09 10:05:18;;;;;;;;;;;;;;;24.57;42.18;99403.31;4478399;32;33765;-78
2022/09/09 10:08:06;;;;;;;0.40;0.40;;;;;;;24.67;42.31;99396.38;4478008;32;33661;-77
2022/09/09 10:10:44;;;;;;;0.40;0.40;;;;;;;24.60;42.74;99392.50;4483293;32;34197;-79
2022/09/09 10:13:21;;;;;;;0.77;0.68;;;;;;;24.60;43.49;99395.12;4483258;31;32055;-78
2022/09/09 10:15:58;;;;;;;0.57;0.57;;;;;;;24.87;43.06;99394.81;4477304;32;34193;-78
2022/09/09 10:18:47;;;;;;;0.88;0.50;;;;;;;25.03;44.01;99390.97;4491925;31;32891;-78
2022/09/09 10:21:31;;;;;;;0.82;0.40;;;;;;;25.20;45.06;99384.37;4489871;31;33912;-78
2022/09/09 10:24:17;;;;;;;0.47;0.47;;;;;;;25.40;42.63;99391.63;4482863;31;34481;-77
2022/09/09 10:26:50;;;;;;;0.32;0.32;;;;;;;25.33;43.58;99379.78;4491136;31;34431;-78
2022/09/09 10:29:43;;;;;;;0.40;0.40;;;;;;;25.11;42.61;99385.94;4480038;31;33077;-80
2022/09/09 10:32:39;;;;;;;0.28;0.28;;;;;;;25.33;40.18;99380.62;4491422;31;33762;-78
2022/09/09 10:35:14;;;;;;;0.70;0.45;;;;;;;25.53;39.71;99392.31;4491491;31;33670;-78
2022/09/09 10:37:54;;;;;;;0.20;0.20;;;;;;;25.77;37.07;99388.66;4493028;31;33752;-80
2022/09/09 10:40:33;;;;;;;0.20;0.20;;;;;;;25.68;39.24;99387.56;4488560;31;33476;-78
2022/09/09 10:43:13;;;;;;;0.65;0.40;;;;;;;25.61;38.17;99381.06;4498281;31;33922;-78
2022/09/09 10:45:51;;;;;;;0.40;0.40;;;;;;;25.61;38.66;99386.38;4496513;31;33979;-79
2022/09/09 10:48:42;;;;;;;0.43;0.40;;;;;;;25.48;37.93;99383.87;4477371;32;34253;-77
2022/09/09 10:51:22;;;;;;;0.37;0.37;;;;;;;25.58;38.39;99381.31;4489922;31;33885;-79
2022/09/09 10:54:03;;;;;;;6.22;1.95;;;;;;;25.51;38.50;99386.28;4491638;31;33539;-78
2022/09/09 10:56:35;;;;;;;0.32;0.30;;;;;;;25.88;38.50;99378.03;4492647;31;34951;-77
2022/09/09 10:59:05;;;;;;;0.20;0.20;;;;;;;25.95;36.92;99381.88;4498511;31;33143;-77
2022/09/09 11:01:40;;;;;;;0.20;0.20;;;;;;;25.62;38.58;99377.47;4492376;31;35102;-78
2022/09/09 11:04:13;;;;;;;0.77;0.32;;;;;;;25.84;37.08;99370.41;4492934;31;33987;-78
2022/09/09 11:06:46;;;;;;;0.20;0.20;;;;;;;26.05;37.12;99376.66;4491817;31;32192;-78
2022/09/09 11:09:17;;;;;;;0.30;0.20;;;;;;;25.92;37.82;99367.97;4485159;31;34493;-79
2022/09/09 11:11:52;;;;;;;0.35;0.30;;;;;;;25.82;37.92;99373.16;4496283;31;32907;-78
2022/09/09 11:14:29;;;;;;;0.20;0.20;;;;;;;26.30;37.59;99370.13;4493580;31;33376;-80
2022/09/09 11:17:10;;;;;;;0.20;0.20;;;;;;;26.30;36.47;99358.66;4492913;31;33513;-79
2022/09/09 11:19:40;;;;;;;1.05;0.43;;;;;;;26.27;35.75;99362.41;4492924;31;33908;-78
2022/09/09 11:22:16;;;;;;;0.35;0.30;;;;;;;26.48;36.19;99353.56;4490634;31;33015;-80
2022/09/09 11:24:48;;;;;;;0.45;0.32;;;;;;;26.65;36.38;99361.03;4509234;31;33624;-80
2022/09/09 11:27:21;;;;;;;0.55;0.25;;;;;;;26.51;37.38;99367.47;4507519;31;33506;-80
2022/09/09 11:30:07;;;;;;;1.10;0.60;;;;;;;26.64;37.16;99372.62;4502461;31;34348;-78
2022/09/09 11:33:08;;;;;;;0.62;0.30;;;;;;;26.52;37.36;99368.31;4501924;31;34099;-80
2022/09/09 11:35:46;;;;;;;2.25;0.73;;;;;;;26.40;37.86;99372.84;4479871;31;33332;-79
2022/09/09 11:38:19;;;;;;;0.73;0.40;;;;;;;26.32;37.12;99377.97;4489326;31;33761;-80
2022/09/09 11:40:55;;;;;;;0.43;0.30;;;;;;;26.32;38.43;99376.16;4489862;31;32164;-78
2022/09/09 11:43:28;;;;;;;0.77;0.40;;;;;;;26.29;37.51;99370.25;4500973;31;33182;-78
2022/09/09 11:45:59;;;;;;;0.20;0.20;;;;;;;26.47;37.59;99363.38;4499722;31;34265;-80
2022/09/09 11:48:34;;;;;;;0.40;0.40;;;;;;;26.50;37.93;99362.28;4496426;31;32816;-79
2022/09/09 11:51:07;;;;;;;0.30;0.30;;;;;;;26.03;37.96;99375.09;4492711;31;33216;-76
2022/09/09 11:53:49;;;;;;;0.52;0.50;;;;;;;26.05;38.07;99367.84;4498396;31;33178;-78
2022/09/09 11:56:32;;;;;;;0.47;0.45;;;;;;;26.01;39.27;99363.72;4495049;31;34367;-78
2022/09/09 11:59:04;;;;;;;0.30;0.30;;;;;;;26.40;37.70;99365.72;4494876;31;34623;-76
2022/09/09 12:01:37;;;;;;;1.00;0.32;;;;;;;26.08;38.00;99357.78;4491371;31;34394;-78